createdAt,value
2022-12-31T00:00:21.563Z,12.94
2022-12-31T00:01:22.791Z,12.95
2022-12-31T00:02:23.819Z,12.95
2022-12-31T00:03:25.411Z,12.92
2022-12-31T00:04:26.823Z,12.89
2022-12-31T00:05:27.739Z,12.88
2022-12-31T00:06:28.669Z,12.97
2022-12-31T00:07:29.559Z,13.1
2022-12-31T00:08:30.435Z,13.05
2022-12-31T00:09:31.478Z,13.04
2022-12-31T00:10:32.417Z,13.04
2022-12-31T00:11:33.295Z,13.06
2022-12-31T00:12:34.216Z,13.05
2022-12-31T00:13:35.118Z,13.16
2022-12-31T00:14:36.044Z,13.08
2022-12-31T00:15:36.920Z,13.23
2022-12-31T00:16:37.882Z,13.26
2022-12-31T00:17:39.198Z,13.17
2022-12-31T00:18:40.117Z,13.2
2022-12-31T00:19:41.100Z,13.32
2022-12-31T00:20:42.045Z,13.29
2022-12-31T00:21:42.968Z,13.31
2022-12-31T00:22:43.867Z,13.38
2022-12-31T00:23:44.740Z,13.34
2022-12-31T00:24:45.671Z,13.27
2022-12-31T00:25:46.565Z,13.47
2022-12-31T00:26:47.451Z,13.46
2022-12-31T00:27:48.347Z,13.41
2022-12-31T00:28:49.236Z,13.45
2022-12-31T00:29:50.147Z,13.59
2022-12-31T00:30:51.075Z,13.61
2022-12-31T00:31:52.099Z,13.5
2022-12-31T00:32:52.986Z,13.45
2022-12-31T00:33:53.912Z,13.67
2022-12-31T00:34:54.833Z,13.56
2022-12-31T00:35:55.737Z,13.54
2022-12-31T00:36:56.632Z,13.53
2022-12-31T00:37:57.517Z,13.48
2022-12-31T00:38:58.416Z,13.44
2022-12-31T00:39:59.345Z,13.48
2022-12-31T00:41:00.262Z,13.58
2022-12-31T00:42:01.173Z,13.54
2022-12-31T00:43:02.079Z,13.61
2022-12-31T00:44:02.988Z,13.62
2022-12-31T00:45:03.938Z,13.71
2022-12-31T00:46:05.030Z,13.68
2022-12-31T00:47:06.353Z,13.65
2022-12-31T00:48:07.241Z,13.66
2022-12-31T00:49:08.172Z,13.66
2022-12-31T00:50:09.127Z,13.62
2022-12-31T00:51:10.141Z,13.67
2022-12-31T00:52:11.062Z,13.75
2022-12-31T00:53:11.939Z,13.77
2022-12-31T00:54:12.824Z,13.72
2022-12-31T00:55:13.716Z,13.72
2022-12-31T00:56:14.636Z,13.71
2022-12-31T00:57:15.562Z,13.76
2022-12-31T00:58:16.464Z,13.75
2022-12-31T00:59:17.350Z,13.79
2022-12-31T01:00:18.249Z,13.84
2022-12-31T01:01:19.263Z,13.85
2022-12-31T01:02:21.248Z,13.98
2022-12-31T01:03:23.046Z,13.87
2022-12-31T01:04:24.155Z,13.88
2022-12-31T01:05:25.116Z,13.82
2022-12-31T01:06:26.123Z,13.8
2022-12-31T01:07:27.032Z,13.78
2022-12-31T01:08:27.948Z,13.78
2022-12-31T01:09:28.842Z,13.8
2022-12-31T01:10:29.722Z,13.84
2022-12-31T01:11:30.620Z,13.8
2022-12-31T01:12:31.523Z,13.85
2022-12-31T01:13:32.433Z,13.8
2022-12-31T01:14:33.304Z,13.85
2022-12-31T01:15:34.205Z,13.85
2022-12-31T01:16:35.307Z,13.76
2022-12-31T01:17:36.220Z,13.77
2022-12-31T01:18:37.104Z,13.81
2022-12-31T01:19:38.044Z,13.75
2022-12-31T01:20:38.968Z,13.67
2022-12-31T01:21:39.860Z,13.6
2022-12-31T01:22:40.738Z,13.58
2022-12-31T01:23:41.659Z,13.63
2022-12-31T01:24:42.583Z,13.59
2022-12-31T01:25:43.450Z,13.62
2022-12-31T01:26:44.326Z,13.6
2022-12-31T01:27:45.217Z,13.66
2022-12-31T01:28:46.116Z,13.66
2022-12-31T01:29:47.340Z,13.61
2022-12-31T01:30:48.251Z,13.61
2022-12-31T01:31:49.404Z,13.57
2022-12-31T01:32:50.356Z,13.49
2022-12-31T01:33:51.263Z,13.51
2022-12-31T01:34:52.223Z,13.5
2022-12-31T01:35:53.259Z,13.5
2022-12-31T01:36:54.193Z,13.52
2022-12-31T01:37:55.070Z,13.54
2022-12-31T01:38:56.336Z,13.63
2022-12-31T01:39:57.261Z,13.51
2022-12-31T01:40:58.195Z,13.52
2022-12-31T01:41:59.078Z,13.51
2022-12-31T01:42:59.964Z,13.48
2022-12-31T01:44:00.846Z,13.45
2022-12-31T01:45:01.742Z,13.44
2022-12-31T01:46:02.666Z,13.42
2022-12-31T01:47:03.851Z,13.45
2022-12-31T01:48:04.849Z,13.45
2022-12-31T01:49:05.729Z,13.54
2022-12-31T01:50:06.630Z,13.47
2022-12-31T01:51:07.700Z,13.42
2022-12-31T01:52:08.688Z,13.49
2022-12-31T01:53:09.576Z,13.53
2022-12-31T01:54:10.498Z,13.54
2022-12-31T01:55:11.403Z,13.45
2022-12-31T01:56:12.321Z,13.46
2022-12-31T01:57:13.256Z,13.46
2022-12-31T01:58:14.132Z,13.45
2022-12-31T01:59:15.030Z,13.47
2022-12-31T02:00:15.915Z,13.45
2022-12-31T02:01:16.904Z,13.48
2022-12-31T02:02:18.444Z,13.47
2022-12-31T02:03:20.061Z,13.46
2022-12-31T02:04:21.183Z,13.45
2022-12-31T02:05:22.198Z,13.4
2022-12-31T02:06:23.272Z,13.36
2022-12-31T02:07:24.220Z,13.38
2022-12-31T02:08:25.124Z,13.37
2022-12-31T02:09:26.010Z,13.34
2022-12-31T02:10:26.918Z,13.39
2022-12-31T02:11:27.846Z,13.39
2022-12-31T02:12:28.812Z,13.37
2022-12-31T02:13:30.325Z,13.4
2022-12-31T02:14:31.203Z,13.35
2022-12-31T02:15:32.088Z,13.44
2022-12-31T02:16:32.975Z,13.37
2022-12-31T02:17:33.897Z,13.32
2022-12-31T02:18:34.784Z,13.29
2022-12-31T02:19:35.676Z,13.31
2022-12-31T02:20:36.580Z,13.29
2022-12-31T02:21:37.537Z,13.31
2022-12-31T02:22:38.687Z,13.25
2022-12-31T02:23:40.743Z,13.25
2022-12-31T02:24:41.613Z,13.27
2022-12-31T02:25:42.485Z,13.3
2022-12-31T02:26:43.369Z,13.27
2022-12-31T02:27:44.276Z,13.25
2022-12-31T02:28:45.169Z,13.27
2022-12-31T02:29:46.105Z,13.31
2022-12-31T02:30:46.984Z,13.3
2022-12-31T02:31:47.885Z,13.25
2022-12-31T02:32:48.775Z,13.27
2022-12-31T02:33:49.670Z,13.29
2022-12-31T02:34:50.594Z,13.29
2022-12-31T02:35:51.547Z,13.32
2022-12-31T02:36:52.683Z,13.38
2022-12-31T02:37:53.587Z,13.35
2022-12-31T02:38:54.492Z,13.34
2022-12-31T02:39:55.406Z,13.51
2022-12-31T02:40:56.275Z,13.47
2022-12-31T02:41:57.193Z,13.45
2022-12-31T02:42:58.096Z,13.43
2022-12-31T02:43:59.130Z,13.45
2022-12-31T02:45:00.027Z,13.52
2022-12-31T02:46:01.048Z,13.46
2022-12-31T02:47:01.925Z,13.42
2022-12-31T02:48:02.842Z,13.46
2022-12-31T02:49:03.752Z,13.47
2022-12-31T02:50:04.648Z,13.47
2022-12-31T02:51:05.535Z,13.45
2022-12-31T02:52:06.499Z,13.45
2022-12-31T02:53:07.389Z,13.51
2022-12-31T02:54:08.278Z,13.57
2022-12-31T02:55:09.164Z,13.62
2022-12-31T02:56:10.131Z,13.58
2022-12-31T02:57:11.061Z,13.67
2022-12-31T02:58:11.968Z,13.62
2022-12-31T02:59:12.864Z,13.59
2022-12-31T03:00:13.745Z,13.71
2022-12-31T03:01:14.753Z,13.76
2022-12-31T03:02:16.583Z,13.89
2022-12-31T03:03:18.470Z,13.87
2022-12-31T03:04:19.352Z,13.79
2022-12-31T03:05:20.229Z,13.77
2022-12-31T03:06:21.160Z,13.75
2022-12-31T03:07:22.289Z,13.89
2022-12-31T03:08:23.196Z,13.88
2022-12-31T03:09:24.067Z,13.84
2022-12-31T03:10:25.084Z,13.89
2022-12-31T03:11:26.039Z,13.9
2022-12-31T03:12:26.942Z,13.9
2022-12-31T03:13:27.848Z,13.97
2022-12-31T03:14:28.715Z,13.98
2022-12-31T03:15:29.610Z,13.93
2022-12-31T03:16:30.547Z,13.98
2022-12-31T03:17:31.802Z,13.99
2022-12-31T03:18:32.671Z,13.96
2022-12-31T03:19:33.560Z,13.92
2022-12-31T03:20:34.442Z,13.9
2022-12-31T03:21:35.349Z,13.95
2022-12-31T03:22:36.382Z,13.89
2022-12-31T03:23:37.369Z,13.85
2022-12-31T03:24:38.255Z,13.8
2022-12-31T03:25:39.149Z,13.77
2022-12-31T03:26:40.029Z,13.78
2022-12-31T03:27:40.946Z,13.76
2022-12-31T03:28:41.851Z,13.82
2022-12-31T03:29:42.940Z,13.8
2022-12-31T03:30:43.831Z,13.81
2022-12-31T03:31:44.805Z,13.78
2022-12-31T03:32:46.008Z,13.84
2022-12-31T03:33:46.879Z,13.79
2022-12-31T03:34:47.808Z,13.92
2022-12-31T03:35:48.752Z,13.86
2022-12-31T03:36:49.674Z,13.81
2022-12-31T03:37:50.728Z,13.83
2022-12-31T03:38:52.900Z,13.85
2022-12-31T03:39:53.939Z,13.86
2022-12-31T03:40:54.851Z,13.83
2022-12-31T03:41:55.747Z,13.85
2022-12-31T03:42:56.689Z,13.82
2022-12-31T03:43:57.627Z,13.85
2022-12-31T03:44:58.526Z,14.12
2022-12-31T03:45:59.490Z,14.19
2022-12-31T03:47:00.887Z,14.04
2022-12-31T03:48:01.795Z,14.03
2022-12-31T03:49:03.099Z,14.08
2022-12-31T03:50:03.966Z,14.15
2022-12-31T03:51:04.873Z,14.3
2022-12-31T03:52:05.801Z,14.3
2022-12-31T03:53:06.780Z,14.26
2022-12-31T03:54:07.696Z,14.26
2022-12-31T03:55:08.567Z,14.26
2022-12-31T03:56:09.468Z,14.24
2022-12-31T03:57:10.369Z,14.36
2022-12-31T03:58:11.280Z,14.29
2022-12-31T03:59:12.212Z,14.27
2022-12-31T04:00:13.112Z,14.26
2022-12-31T04:01:14.122Z,14.3
2022-12-31T04:02:15.632Z,14.31
2022-12-31T04:03:17.541Z,14.25
2022-12-31T04:04:18.785Z,14.25
2022-12-31T04:05:19.696Z,14.33
2022-12-31T04:06:20.605Z,14.37
2022-12-31T04:07:21.527Z,14.32
2022-12-31T04:08:22.454Z,14.33
2022-12-31T04:09:23.355Z,14.31
2022-12-31T04:10:24.253Z,14.3
2022-12-31T04:11:25.152Z,14.27
2022-12-31T04:12:26.045Z,14.27
2022-12-31T04:13:27.217Z,14.28
2022-12-31T04:14:28.121Z,14.25
2022-12-31T04:15:29.013Z,14.21
2022-12-31T04:16:29.959Z,14.19
2022-12-31T04:17:31.127Z,14.15
2022-12-31T04:18:32.599Z,14.16
2022-12-31T04:19:33.527Z,14.15
2022-12-31T04:20:34.436Z,14.14
2022-12-31T04:21:35.456Z,14.11
2022-12-31T04:22:36.416Z,14.1
2022-12-31T04:23:37.454Z,14.13
2022-12-31T04:24:38.328Z,14.09
2022-12-31T04:25:39.201Z,14.09
2022-12-31T04:26:40.099Z,14.09
2022-12-31T04:27:41.022Z,14.08
2022-12-31T04:28:42.077Z,14.13
2022-12-31T04:29:42.973Z,14.11
2022-12-31T04:30:43.868Z,14.12
2022-12-31T04:31:45.249Z,14.13
2022-12-31T04:32:46.502Z,14.11
2022-12-31T04:33:47.466Z,14.1
2022-12-31T04:34:48.343Z,14.11
2022-12-31T04:35:49.282Z,14.07
2022-12-31T04:36:50.192Z,14.05
2022-12-31T04:37:51.098Z,14.14
2022-12-31T04:38:52.211Z,14.14
2022-12-31T04:39:53.091Z,14.12
2022-12-31T04:40:54.025Z,14.07
2022-12-31T04:41:54.904Z,14.04
2022-12-31T04:42:55.852Z,14.02
2022-12-31T04:43:56.768Z,14.06
2022-12-31T04:44:57.680Z,14.1
2022-12-31T04:45:58.594Z,14.06
2022-12-31T04:46:59.801Z,14.1
2022-12-31T04:48:00.734Z,14.07
2022-12-31T04:49:01.611Z,14.09
2022-12-31T04:50:02.530Z,14.19
2022-12-31T04:51:03.436Z,14.24
2022-12-31T04:52:04.348Z,14.21
2022-12-31T04:53:05.272Z,14.26
2022-12-31T04:54:06.285Z,14.33
2022-12-31T04:55:07.197Z,14.35
2022-12-31T04:56:08.114Z,14.33
2022-12-31T04:57:09.128Z,14.4
2022-12-31T04:58:10.044Z,14.42
2022-12-31T04:59:10.938Z,14.41
2022-12-31T05:00:11.837Z,14.41
2022-12-31T05:01:12.802Z,14.41
2022-12-31T05:02:14.558Z,14.62
2022-12-31T05:03:16.569Z,14.63
2022-12-31T05:04:17.735Z,14.59
2022-12-31T05:05:18.602Z,14.58
2022-12-31T05:06:19.511Z,14.78
2022-12-31T05:07:20.429Z,14.76
2022-12-31T05:08:21.382Z,14.67
2022-12-31T05:09:22.456Z,14.61
2022-12-31T05:10:23.345Z,14.6
2022-12-31T05:11:24.227Z,14.59
2022-12-31T05:12:25.163Z,14.58
2022-12-31T05:13:31.157Z,14.66
2022-12-31T05:14:28.330Z,14.63
2022-12-31T05:15:29.230Z,14.62
2022-12-31T05:16:30.180Z,14.67
2022-12-31T05:17:31.288Z,14.71
2022-12-31T05:18:32.253Z,14.7
2022-12-31T05:19:33.175Z,14.77
2022-12-31T05:20:34.101Z,14.88
2022-12-31T05:21:34.986Z,14.88
2022-12-31T05:22:35.904Z,14.88
2022-12-31T05:23:36.794Z,14.85
2022-12-31T05:24:37.756Z,14.88
2022-12-31T05:25:38.625Z,14.76
2022-12-31T05:26:39.501Z,14.71
2022-12-31T05:27:40.386Z,14.78
2022-12-31T05:28:41.326Z,14.81
2022-12-31T05:29:42.241Z,14.75
2022-12-31T05:30:43.172Z,14.69
2022-12-31T05:31:44.327Z,14.7
2022-12-31T05:32:45.220Z,14.74
2022-12-31T05:33:46.145Z,14.7
2022-12-31T05:34:47.028Z,14.68
2022-12-31T05:35:47.940Z,14.65
2022-12-31T05:36:48.843Z,14.66
2022-12-31T05:37:49.726Z,14.66
2022-12-31T05:38:50.627Z,14.64
2022-12-31T05:39:51.757Z,14.71
2022-12-31T05:40:52.659Z,14.67
2022-12-31T05:41:53.534Z,14.65
2022-12-31T05:42:54.443Z,14.61
2022-12-31T05:43:55.338Z,14.61
2022-12-31T05:44:56.225Z,14.6
2022-12-31T05:45:57.373Z,14.6
2022-12-31T05:46:58.655Z,14.57
2022-12-31T05:47:59.540Z,14.75
2022-12-31T05:49:00.430Z,14.82
2022-12-31T05:50:01.369Z,14.69
2022-12-31T05:51:02.270Z,14.67
2022-12-31T05:52:03.290Z,14.65
2022-12-31T05:53:04.196Z,14.68
2022-12-31T05:54:05.123Z,14.68
2022-12-31T05:55:06.137Z,14.67
2022-12-31T05:56:07.024Z,14.64
2022-12-31T05:57:07.926Z,14.64
2022-12-31T05:58:08.910Z,14.61
2022-12-31T05:59:09.816Z,14.56
2022-12-31T06:00:10.730Z,14.53
2022-12-31T06:01:11.712Z,14.56
2022-12-31T06:02:12.952Z,14.67
2022-12-31T06:03:14.441Z,14.66
2022-12-31T06:04:15.988Z,14.71
2022-12-31T06:05:19.693Z,14.68
2022-12-31T06:06:18.008Z,14.71
2022-12-31T06:07:18.915Z,14.71
2022-12-31T06:08:19.847Z,14.68
2022-12-31T06:09:20.880Z,14.63
2022-12-31T06:10:21.865Z,14.67
2022-12-31T06:11:22.756Z,14.67
2022-12-31T06:12:23.650Z,14.7
2022-12-31T06:13:24.556Z,14.68
2022-12-31T06:14:25.439Z,14.67
2022-12-31T06:15:26.382Z,14.72
2022-12-31T06:16:27.292Z,14.67
2022-12-31T06:17:28.194Z,14.64
2022-12-31T06:18:29.283Z,14.68
2022-12-31T06:19:30.168Z,14.67
2022-12-31T06:20:31.097Z,14.67
2022-12-31T06:21:32.081Z,14.69
2022-12-31T06:22:33.010Z,14.68
2022-12-31T06:23:33.933Z,14.65
2022-12-31T06:24:34.871Z,14.64
2022-12-31T06:25:35.971Z,14.61
2022-12-31T06:26:36.872Z,14.64
2022-12-31T06:27:37.779Z,14.71
2022-12-31T06:28:38.691Z,14.68
2022-12-31T06:29:39.583Z,14.71
2022-12-31T06:30:40.465Z,14.71
2022-12-31T06:31:41.349Z,14.7
2022-12-31T06:32:42.265Z,14.66
2022-12-31T06:33:43.161Z,14.67
2022-12-31T06:34:44.071Z,14.8
2022-12-31T06:35:45.004Z,14.85
2022-12-31T06:36:45.903Z,14.8
2022-12-31T06:37:46.819Z,14.74
2022-12-31T06:38:47.731Z,14.75
2022-12-31T06:39:48.644Z,14.68
2022-12-31T06:40:49.713Z,14.66
2022-12-31T06:41:50.595Z,14.67
2022-12-31T06:42:56.112Z,14.7
2022-12-31T06:43:51.951Z,14.68
2022-12-31T06:44:52.861Z,14.69
2022-12-31T06:45:53.750Z,14.72
2022-12-31T06:46:54.672Z,14.71
2022-12-31T06:47:55.949Z,14.75
2022-12-31T06:48:56.870Z,14.74
2022-12-31T06:49:57.775Z,14.67
2022-12-31T06:50:58.680Z,14.66
2022-12-31T06:51:59.591Z,14.71
2022-12-31T06:53:00.503Z,14.74
2022-12-31T06:54:01.415Z,14.76
2022-12-31T06:55:02.438Z,14.83
2022-12-31T06:56:03.626Z,14.9
2022-12-31T06:57:04.524Z,14.91
2022-12-31T06:58:05.474Z,14.85
2022-12-31T06:59:06.380Z,14.82
2022-12-31T07:00:07.304Z,14.78
2022-12-31T07:01:08.454Z,14.87
2022-12-31T07:02:09.626Z,14.83
2022-12-31T07:03:10.792Z,14.76
2022-12-31T07:04:12.261Z,14.84
2022-12-31T07:05:13.154Z,14.81
2022-12-31T07:06:14.068Z,14.86
2022-12-31T07:07:14.949Z,14.81
2022-12-31T07:08:15.839Z,14.75
2022-12-31T07:09:16.763Z,14.71
2022-12-31T07:10:17.684Z,14.67
2022-12-31T07:11:18.653Z,14.67
2022-12-31T07:12:19.562Z,14.66
2022-12-31T07:13:20.600Z,14.77
2022-12-31T07:14:21.510Z,14.77
2022-12-31T07:15:22.407Z,14.84
2022-12-31T07:16:23.338Z,14.79
2022-12-31T07:17:24.437Z,14.91
2022-12-31T07:18:25.353Z,14.88
2022-12-31T07:19:26.258Z,14.9
2022-12-31T07:20:27.254Z,14.85
2022-12-31T07:21:28.123Z,14.95
2022-12-31T07:22:29.045Z,14.86
2022-12-31T07:23:29.969Z,14.86
2022-12-31T07:24:30.853Z,14.85
2022-12-31T07:25:31.745Z,14.87
2022-12-31T07:26:32.819Z,14.8
2022-12-31T07:27:33.711Z,14.81
2022-12-31T07:28:34.615Z,14.78
2022-12-31T07:29:35.542Z,14.75
2022-12-31T07:30:36.583Z,14.73
2022-12-31T07:31:37.459Z,14.75
2022-12-31T07:32:38.582Z,14.75
2022-12-31T07:33:39.463Z,14.76
2022-12-31T07:34:40.651Z,14.76
2022-12-31T07:35:41.734Z,14.77
2022-12-31T07:36:42.611Z,14.88
2022-12-31T07:37:43.513Z,14.85
2022-12-31T07:38:44.402Z,14.81
2022-12-31T07:39:45.270Z,14.8
2022-12-31T07:40:46.200Z,14.78
2022-12-31T07:41:47.344Z,14.77
2022-12-31T07:42:48.226Z,14.8
2022-12-31T07:43:49.116Z,14.82
2022-12-31T07:44:50.029Z,14.82
2022-12-31T07:45:50.934Z,14.87
2022-12-31T07:46:51.910Z,14.83
2022-12-31T07:47:56.335Z,14.84
2022-12-31T07:48:54.518Z,14.82
2022-12-31T07:49:55.390Z,14.84
2022-12-31T07:50:56.286Z,14.83
2022-12-31T07:51:57.358Z,14.87
2022-12-31T07:52:58.259Z,14.85
2022-12-31T07:53:59.151Z,14.87
2022-12-31T07:55:00.105Z,14.88
2022-12-31T07:56:01.112Z,14.94
2022-12-31T07:57:02.129Z,14.96
2022-12-31T07:58:03.016Z,14.99
2022-12-31T07:59:02.076Z,15.03
2022-12-31T08:00:02.987Z,15.04
2022-12-31T08:01:03.984Z,15.06
2022-12-31T08:02:05.373Z,15.05
2022-12-31T08:03:06.786Z,15.02
2022-12-31T08:04:07.679Z,14.98
2022-12-31T08:05:08.798Z,15
2022-12-31T08:06:09.891Z,15.08
2022-12-31T08:07:10.972Z,15.04
2022-12-31T08:08:11.894Z,15.04
2022-12-31T08:09:12.802Z,15.11
2022-12-31T08:10:17.646Z,15.12
2022-12-31T08:11:16.252Z,15.13
2022-12-31T08:12:17.191Z,15.13
2022-12-31T08:13:18.092Z,15.21
2022-12-31T08:13:32.538Z,15.23
2022-12-31T08:14:33.506Z,15.28
2022-12-31T08:15:34.428Z,15.33
2022-12-31T08:16:35.371Z,15.28
2022-12-31T08:17:36.590Z,15.24
2022-12-31T08:18:37.511Z,15.27
2022-12-31T08:19:38.489Z,15.31
2022-12-31T08:20:39.391Z,15.39
2022-12-31T08:21:40.222Z,15.39
2022-12-31T08:22:41.105Z,15.39
2022-12-31T08:23:42.010Z,15.37
2022-12-31T08:24:45.917Z,15.39
2022-12-31T08:25:43.671Z,15.41
2022-12-31T08:26:48.168Z,15.47
2022-12-31T08:27:45.039Z,15.5
2022-12-31T08:28:45.953Z,15.51
2022-12-31T08:29:46.856Z,15.53
2022-12-31T08:30:47.762Z,15.62
2022-12-31T08:31:43.446Z,15.61
2022-12-31T08:32:44.808Z,15.67
2022-12-31T08:33:45.709Z,15.68
2022-12-31T08:34:46.631Z,15.67
2022-12-31T08:35:47.562Z,15.66
2022-12-31T08:36:48.519Z,15.65
2022-12-31T08:37:49.410Z,15.65
2022-12-31T08:38:50.287Z,15.65
2022-12-31T08:39:51.211Z,15.73
2022-12-31T08:40:52.153Z,15.73
2022-12-31T08:41:53.109Z,15.81
2022-12-31T08:42:54.072Z,15.83
2022-12-31T08:43:55.124Z,15.78
2022-12-31T08:44:56.043Z,15.81
2022-12-31T08:45:56.967Z,15.83
2022-12-31T08:46:58.203Z,15.81
2022-12-31T08:48:00.161Z,15.77
2022-12-31T08:49:01.392Z,15.74
2022-12-31T08:50:02.441Z,15.77
2022-12-31T08:51:04.593Z,15.8
2022-12-31T08:52:05.760Z,15.83
2022-12-31T08:53:06.680Z,15.82
2022-12-31T08:54:07.597Z,15.82
2022-12-31T08:55:08.536Z,15.79
2022-12-31T08:56:09.445Z,15.8
2022-12-31T08:57:10.408Z,15.81
2022-12-31T08:58:11.495Z,15.85
2022-12-31T08:59:12.546Z,15.83
2022-12-31T09:00:13.430Z,15.81
2022-12-31T09:01:14.477Z,15.83
2022-12-31T09:02:16.084Z,15.82
2022-12-31T09:03:17.403Z,15.8
2022-12-31T09:04:18.735Z,15.76
2022-12-31T09:05:19.967Z,15.74
2022-12-31T09:06:20.856Z,15.75
2022-12-31T09:06:35.008Z,15.75
2022-12-31T09:07:35.939Z,15.77
2022-12-31T09:08:36.971Z,15.76
2022-12-31T09:09:37.867Z,15.76
2022-12-31T09:10:38.768Z,15.79
2022-12-31T09:11:19.275Z,15.8
2022-12-31T09:12:18.259Z,15.82
2022-12-31T09:13:19.260Z,15.85
2022-12-31T09:14:05.647Z,15.79
2022-12-31T09:15:06.593Z,15.83
2022-12-31T09:16:07.566Z,15.8
2022-12-31T09:17:08.979Z,15.82
2022-12-31T09:18:09.889Z,15.8
2022-12-31T09:19:10.867Z,15.8
2022-12-31T09:20:11.934Z,15.81
2022-12-31T09:21:12.857Z,15.85
2022-12-31T09:22:13.918Z,15.86
2022-12-31T09:23:15.088Z,15.88
2022-12-31T09:24:16.091Z,15.86
2022-12-31T09:25:17.110Z,15.87
2022-12-31T09:26:18.141Z,15.97
2022-12-31T09:27:23.819Z,15.98
2022-12-31T09:28:19.589Z,16.02
2022-12-31T09:29:20.572Z,16.07
2022-12-31T09:30:21.585Z,16.08
2022-12-31T09:30:26.504Z,16.08
2022-12-31T09:31:27.479Z,16.15
2022-12-31T09:32:28.567Z,16.18
2022-12-31T09:33:29.471Z,16.2
2022-12-31T09:34:30.380Z,16.26
2022-12-31T09:35:31.302Z,16.27
2022-12-31T09:36:32.208Z,16.29
2022-12-31T09:37:33.192Z,16.35
2022-12-31T09:38:34.118Z,16.43
2022-12-31T09:39:35.028Z,16.42
2022-12-31T09:40:35.999Z,16.47
2022-12-31T09:41:36.911Z,16.5
2022-12-31T09:42:37.847Z,16.52
2022-12-31T09:43:38.863Z,16.51
2022-12-31T09:44:39.811Z,16.53
2022-12-31T09:45:40.908Z,16.54
2022-12-31T09:46:42.017Z,16.59
2022-12-31T09:47:42.917Z,16.62
2022-12-31T09:48:43.821Z,16.64
2022-12-31T09:49:44.710Z,16.7
2022-12-31T09:50:45.609Z,16.75
2022-12-31T09:51:46.545Z,16.78
2022-12-31T09:52:47.821Z,16.81
2022-12-31T09:53:48.856Z,16.78
2022-12-31T09:54:47.893Z,16.74
2022-12-31T09:55:48.805Z,16.83
2022-12-31T09:56:52.929Z,16.87
2022-12-31T09:57:50.761Z,16.91
2022-12-31T09:58:51.786Z,16.89
2022-12-31T09:59:52.874Z,16.91
2022-12-31T10:00:53.847Z,16.94
2022-12-31T10:01:18.043Z,16.94
2022-12-31T10:02:19.755Z,16.92
2022-12-31T10:03:21.737Z,16.94
2022-12-31T10:04:23.479Z,16.99
2022-12-31T10:05:24.464Z,17.01
2022-12-31T10:06:25.377Z,17.08
2022-12-31T10:07:26.277Z,17.16
2022-12-31T10:08:27.452Z,17.2
2022-12-31T10:09:28.354Z,17.2
2022-12-31T10:10:29.279Z,17.18
2022-12-31T10:11:30.165Z,17.19
2022-12-31T10:12:31.065Z,17.26
2022-12-31T10:13:32.271Z,17.26
2022-12-31T10:14:33.269Z,17.36
2022-12-31T10:15:34.260Z,17.37
2022-12-31T10:16:35.240Z,17.44
2022-12-31T10:17:36.326Z,17.51
2022-12-31T10:18:37.327Z,17.51
2022-12-31T10:19:38.236Z,17.49
2022-12-31T10:20:45.040Z,17.52
2022-12-31T10:21:40.205Z,17.54
2022-12-31T10:22:41.111Z,17.57
2022-12-31T10:22:48.932Z,17.56
2022-12-31T10:23:49.819Z,17.66
2022-12-31T10:24:51.105Z,17.62
2022-12-31T10:25:52.204Z,17.61
2022-12-31T10:26:19.163Z,17.64
2022-12-31T10:27:20.060Z,17.65
2022-12-31T10:28:20.938Z,17.7
2022-12-31T10:29:21.869Z,17.75
2022-12-31T10:29:39.399Z,17.75
2022-12-31T10:30:40.262Z,17.75
2022-12-31T10:31:41.502Z,17.74
2022-12-31T10:32:42.382Z,17.72
2022-12-31T10:33:43.247Z,17.77
2022-12-31T10:34:44.267Z,17.76
2022-12-31T10:35:45.291Z,17.75
2022-12-31T10:36:46.186Z,17.79
2022-12-31T10:37:47.209Z,17.83
2022-12-31T10:38:48.066Z,17.82
2022-12-31T10:39:48.984Z,17.81
2022-12-31T10:40:50.020Z,17.85
2022-12-31T10:41:50.947Z,17.91
2022-12-31T10:42:52.293Z,17.9
2022-12-31T10:43:53.200Z,17.88
2022-12-31T10:44:54.129Z,17.91
2022-12-31T10:45:55.170Z,17.98
2022-12-31T10:46:56.429Z,17.96
2022-12-31T10:47:57.309Z,17.98
2022-12-31T10:48:58.319Z,17.97
2022-12-31T10:49:59.224Z,17.99
2022-12-31T10:51:00.194Z,17.97
2022-12-31T10:52:01.399Z,18.01
2022-12-31T10:53:02.279Z,18.04
2022-12-31T10:54:03.224Z,17.99
2022-12-31T10:55:04.463Z,18.05
2022-12-31T10:56:05.542Z,18.06
2022-12-31T10:57:06.443Z,18.08
2022-12-31T10:58:07.363Z,18.1
2022-12-31T10:59:08.288Z,18.11
2022-12-31T11:00:09.216Z,18.14
2022-12-31T11:01:10.264Z,18.15
2022-12-31T11:02:11.980Z,18.18
2022-12-31T11:03:13.551Z,18.17
2022-12-31T11:04:14.578Z,18.22
2022-12-31T11:05:15.493Z,18.26
2022-12-31T11:06:16.409Z,18.32
2022-12-31T11:07:17.269Z,18.32
2022-12-31T11:08:18.219Z,18.31
2022-12-31T11:09:19.448Z,18.34
2022-12-31T11:10:20.305Z,18.35
2022-12-31T11:11:21.169Z,18.31
2022-12-31T11:12:22.117Z,18.38
2022-12-31T11:13:22.968Z,18.41
2022-12-31T11:14:23.919Z,18.47
2022-12-31T11:15:24.965Z,18.5
2022-12-31T11:16:26.159Z,18.53
2022-12-31T11:17:27.541Z,18.56
2022-12-31T11:18:28.423Z,18.64
2022-12-31T11:19:29.289Z,18.65
2022-12-31T11:20:30.484Z,18.63
2022-12-31T11:21:31.388Z,18.58
2022-12-31T11:22:32.217Z,18.64
2022-12-31T11:23:33.135Z,18.64
2022-12-31T11:24:32.096Z,18.63
2022-12-31T11:25:32.977Z,18.68
2022-12-31T11:26:33.890Z,18.72
2022-12-31T11:27:34.763Z,18.71
2022-12-31T11:28:35.650Z,18.78
2022-12-31T11:29:36.803Z,18.84
2022-12-31T11:30:37.773Z,18.81
2022-12-31T11:31:39.272Z,18.87
2022-12-31T11:32:40.170Z,18.84
2022-12-31T11:33:44.133Z,18.91
2022-12-31T11:34:41.847Z,18.92
2022-12-31T11:35:02.426Z,18.95
2022-12-31T11:36:03.360Z,19.08
2022-12-31T11:37:04.262Z,19.12
2022-12-31T11:38:05.184Z,19.11
2022-12-31T11:39:06.054Z,19.08
2022-12-31T11:40:06.927Z,19.16
2022-12-31T11:41:07.846Z,19.29
2022-12-31T11:42:08.821Z,19.42
2022-12-31T11:43:09.686Z,19.41
2022-12-31T11:44:10.535Z,19.55
2022-12-31T11:45:11.387Z,19.57
2022-12-31T11:46:12.326Z,19.69
2022-12-31T11:47:13.533Z,19.59
2022-12-31T11:48:31.192Z,19.78
2022-12-31T11:49:14.795Z,19.8
2022-12-31T11:50:15.681Z,19.75
2022-12-31T11:51:16.579Z,19.9
2022-12-31T11:51:53.388Z,19.94
2022-12-31T11:52:11.978Z,20.03
2022-12-31T11:53:15.011Z,20.27
2022-12-31T11:54:15.919Z,20.28
2022-12-31T11:55:16.889Z,20.06
2022-12-31T11:56:17.915Z,20.01
2022-12-31T11:57:19.178Z,19.99
2022-12-31T11:58:20.095Z,20.03
2022-12-31T11:59:20.982Z,20.07
2022-12-31T12:00:21.876Z,20.16
2022-12-31T12:01:22.849Z,20.33
2022-12-31T12:02:24.054Z,20.53
2022-12-31T12:03:25.410Z,20.56
2022-12-31T12:04:26.684Z,20.48
2022-12-31T12:05:27.624Z,20.46
2022-12-31T12:06:28.491Z,20.39
2022-12-31T12:07:29.386Z,20.38
2022-12-31T12:08:30.310Z,20.68
2022-12-31T12:09:31.220Z,20.74
2022-12-31T12:10:36.329Z,20.69
2022-12-31T12:11:35.035Z,20.68
2022-12-31T12:12:35.912Z,20.88
2022-12-31T12:13:36.819Z,20.95
2022-12-31T12:14:37.758Z,20.84
2022-12-31T12:15:38.758Z,21.22
2022-12-31T12:16:39.728Z,21.29
2022-12-31T12:17:41.069Z,21.14
2022-12-31T12:18:42.014Z,21.36
2022-12-31T12:19:42.953Z,21.04
2022-12-31T12:20:44.021Z,20.77
2022-12-31T12:21:44.950Z,20.96
2022-12-31T12:22:49.438Z,21.06
2022-12-31T12:23:47.270Z,21.32
2022-12-31T12:24:48.572Z,21.11
2022-12-31T12:25:49.445Z,21.04
2022-12-31T12:26:50.520Z,21.13
2022-12-31T12:27:51.512Z,21.04
2022-12-31T12:28:52.381Z,21.17
2022-12-31T12:29:53.257Z,21.21
2022-12-31T12:30:54.115Z,21.31
2022-12-31T12:31:55.058Z,21
2022-12-31T12:32:56.131Z,20.82
2022-12-31T12:33:57.032Z,20.81
2022-12-31T12:34:57.902Z,20.85
2022-12-31T12:35:58.837Z,20.79
2022-12-31T12:36:59.733Z,20.73
2022-12-31T12:38:00.685Z,20.72
2022-12-31T12:39:01.555Z,20.74
2022-12-31T12:40:02.563Z,20.77
2022-12-31T12:41:03.569Z,20.74
2022-12-31T12:42:04.562Z,20.7
2022-12-31T12:43:05.464Z,20.79
2022-12-31T12:44:06.500Z,20.75
2022-12-31T12:45:07.463Z,20.79
2022-12-31T12:46:08.357Z,20.69
2022-12-31T12:47:09.280Z,20.7
2022-12-31T12:48:10.462Z,20.63
2022-12-31T12:49:11.356Z,20.69
2022-12-31T12:50:12.340Z,20.57
2022-12-31T12:51:13.387Z,20.6
2022-12-31T12:52:14.247Z,20.62
2022-12-31T12:53:15.163Z,20.44
2022-12-31T12:54:16.157Z,20.5
2022-12-31T12:55:17.084Z,20.43
2022-12-31T12:56:18.211Z,20.41
2022-12-31T12:57:19.096Z,20.39
2022-12-31T12:58:20.078Z,20.46
2022-12-31T12:59:21.022Z,20.41
2022-12-31T13:00:21.941Z,20.32